Time;durP1;ratioP1;P1;durP2;ratioP2;P2;SDS_P1;SDS_P2;PMS_P1;PMS_P2;Temp;Humidity;BMP_temperature;BMP_pressure;BME280_temperature;BME280_humidity;BME280_pressure;Samples;Min_cycle;Max_cycle;Signal;HPM_P1;HPM_P2
2023/05/17 03:00:45;;;;;;;;;;;20.10;64.90;;;;;;5871156;22;45809;-60
2023/05/17 03:03:11;;;;;;;;;;;20.20;65.00;;;;;;4991733;28;46340;-61
2023/05/17 03:05:36;;;;;;;;;;;20.20;64.90;;;;;;4988900;28;44898;-62
2023/05/17 03:08:02;;;;;;;;;;;20.10;64.80;;;;;;4989732;28;44646;-60
2023/05/17 03:10:27;;;;;;;;;;;20.20;64.90;;;;;;4978474;28;45136;-59
2023/05/17 03:12:53;;;;;;;;;;;20.20;64.90;;;;;;5002050;28;46144;-60
2023/05/17 03:15:18;;;;;;;;;;;20.10;64.80;;;;;;4992496;28;45193;-61
2023/05/17 03:17:44;;;;;;;;;;;20.10;64.80;;;;;;4996380;28;45827;-61
2023/05/17 03:20:10;;;;;;;;;;;20.10;64.80;;;;;;5000291;28;45155;-60
2023/05/17 03:22:35;;;;;;;;;;;20.10;64.80;;;;;;5005373;28;46046;-61
2023/05/17 03:25:01;;;;;;;;;;;20.10;64.90;;;;;;5003361;28;46408;-62
2023/05/17 03:27:26;;;;;;;;;;;20.20;65.00;;;;;;5000997;28;45363;-61
2023/05/17 03:29:52;;;;;;;;;;;20.10;65.00;;;;;;5002648;28;45666;-61
2023/05/17 03:32:17;;;;;;;;;;;20.10;64.90;;;;;;4994102;28;46162;-61
2023/05/17 03:34:43;;;;;;;;;;;20.10;65.00;;;;;;5009057;28;44976;-62
2023/05/17 03:37:08;;;;;;;;;;;20.10;64.90;;;;;;4997663;28;45274;-62
2023/05/17 03:39:34;;;;;;;;;;;20.10;64.90;;;;;;5010684;28;45197;-61
2023/05/17 03:42:01;;;;;;;;;;;20.10;64.90;;;;;;4998310;28;45467;-62
2023/05/17 03:44:26;;;;;;;;;;;20.00;64.90;;;;;;4998092;28;45108;-62
2023/05/17 03:46:52;;;;;;;;;;;20.10;64.90;;;;;;4995582;28;45508;-61
2023/05/17 03:49:17;;;;;;;;;;;20.10;64.90;;;;;;5004154;28;45178;-61
2023/05/17 03:51:43;;;;;;;;;;;20.00;65.00;;;;;;4996166;28;45472;-61
2023/05/17 03:54:10;;;;;;;;;;;20.10;65.00;;;;;;5009904;28;44954;-61
2023/05/17 03:56:35;;;;;;;;;;;20.00;64.90;;;;;;4998555;28;45506;-62
2023/05/17 03:59:00;;;;;;;;;;;20.10;64.80;;;;;;5004268;28;45473;-61
2023/05/17 04:01:26;;;;;;;;;;;20.00;64.90;;;;;;4979056;28;46138;-62
2023/05/17 04:03:51;;;;;;;;;;;20.00;64.80;;;;;;4990689;28;45690;-62
2023/05/17 04:06:17;;;;;;;;;;;20.00;64.80;;;;;;5000113;28;48131;-60
2023/05/17 04:08:42;;;;;;;;;;;20.00;64.80;;;;;;5007563;28;45283;-62
2023/05/17 04:11:14;;;;;;;;;;;20.00;65.60;;;;;;4999472;28;46019;-61
2023/05/17 04:13:40;;;;;;;;;;;19.90;64.80;;;;;;4999501;28;45509;-62
2023/05/17 04:16:08;;;;;;;;;;;20.00;64.90;;;;;;4977202;28;45434;-62
2023/05/17 04:18:34;;;;;;;;;;;20.00;65.00;;;;;;4980782;28;46035;-61
2023/05/17 04:21:00;;;;;;;;;;;20.00;65.00;;;;;;4980332;28;47043;-61
2023/05/17 04:23:25;;;;;;;;;;;20.00;65.00;;;;;;5006344;28;44918;-62
2023/05/17 04:25:51;;;;;;;;;;;20.00;65.00;;;;;;5004916;28;45507;-62
2023/05/17 04:28:17;;;;;;;;;;;20.00;64.90;;;;;;5003826;28;45170;-62
2023/05/17 04:30:44;;;;;;;;;;;19.90;65.00;;;;;;4993920;28;46037;-62
2023/05/17 04:33:10;;;;;;;;;;;20.00;65.00;;;;;;4985828;28;48052;-61
2023/05/17 04:35:37;;;;;;;;;;;20.00;65.00;;;;;;4987951;28;45635;-61
2023/05/17 04:38:02;;;;;;;;;;;20.00;65.00;;;;;;4988127;28;45163;-62
2023/05/17 04:40:27;;;;;;;;;;;20.00;64.90;;;;;;4983610;28;45307;-62
2023/05/17 04:42:53;;;;;;;;;;;20.00;64.90;;;;;;5004157;28;45808;-62
2023/05/17 04:45:18;;;;;;;;;;;20.00;65.00;;;;;;4994493;28;45594;-59
2023/05/17 04:47:44;;;;;;;;;;;20.00;64.90;;;;;;4971463;28;44726;-60
2023/05/17 04:50:11;;;;;;;;;;;20.00;64.90;;;;;;4996711;28;46415;-62
2023/05/17 04:52:36;;;;;;;;;;;20.00;64.90;;;;;;5006491;28;45497;-62
2023/05/17 04:55:02;;;;;;;;;;;20.00;64.80;;;;;;5002942;28;45004;-59
2023/05/17 04:57:27;;;;;;;;;;;19.90;64.80;;;;;;5005654;28;44641;-62
2023/05/17 04:59:53;;;;;;;;;;;20.10;64.80;;;;;;5005523;28;46099;-62
2023/05/17 05:02:18;;;;;;;;;;;20.00;64.90;;;;;;4979913;28;45333;-62
2023/05/17 05:04:44;;;;;;;;;;;20.00;64.80;;;;;;5004976;28;45649;-61
2023/05/17 05:07:09;;;;;;;;;;;20.00;64.90;;;;;;4997243;28;46863;-62
2023/05/17 05:09:35;;;;;;;;;;;20.00;64.80;;;;;;5007066;28;45120;-62
2023/05/17 05:12:00;;;;;;;;;;;20.00;64.90;;;;;;4988890;28;46190;-62
2023/05/17 05:14:26;;;;;;;;;;;20.00;65.10;;;;;;5003698;28;45609;-61
2023/05/17 05:16:51;;;;;;;;;;;20.00;64.90;;;;;;4992139;28;45723;-61
2023/05/17 05:19:17;;;;;;;;;;;20.00;64.60;;;;;;5002638;28;45600;-60
2023/05/17 05:21:45;;;;;;;;;;;20.00;64.90;;;;;;4995186;28;45823;-62
2023/05/17 05:24:11;;;;;;;;;;;20.00;64.90;;;;;;5006165;28;45487;-62
2023/05/17 05:26:36;;;;;;;;;;;19.90;64.80;;;;;;5000653;28;45185;-62
2023/05/17 05:29:02;;;;;;;;;;;20.00;64.70;;;;;;5003468;28;46150;-59
2023/05/17 05:31:28;;;;;;;;;;;20.10;64.60;;;;;;4993643;28;45482;-59
2023/05/17 05:33:53;;;;;;;;;;;20.10;64.50;;;;;;4975050;28;45290;-61
2023/05/17 05:36:19;;;;;;;;;;;20.10;64.50;;;;;;4997711;28;44987;-62
2023/05/17 05:38:44;;;;;;;;;;;20.10;64.50;;;;;;5003070;28;46138;-62
2023/05/17 05:41:10;;;;;;;;;;;20.20;64.40;;;;;;5000981;28;45272;-61
2023/05/17 05:43:36;;;;;;;;;;;20.20;64.10;;;;;;5007934;28;45839;-62
2023/05/17 05:46:01;;;;;;;;;;;20.20;64.20;;;;;;4996497;28;45420;-61
2023/05/17 05:48:27;;;;;;;;;;;20.20;64.30;;;;;;5001949;28;45425;-61
2023/05/17 05:50:52;;;;;;;;;;;20.40;63.90;;;;;;5002226;28;45138;-62
2023/05/17 05:53:18;;;;;;;;;;;20.40;63.70;;;;;;5003136;28;46315;-62
2023/05/17 05:55:43;;;;;;;;;;;20.30;63.90;;;;;;5001974;28;45277;-61
2023/05/17 05:58:09;;;;;;;;;;;20.20;64.10;;;;;;4998525;28;45344;-62
2023/05/17 06:00:35;;;;;;;;;;;20.10;64.40;;;;;;4993568;28;44929;-61
2023/05/17 06:03:00;;;;;;;;;;;20.10;64.50;;;;;;5009484;28;45509;-62
2023/05/17 06:05:26;;;;;;;;;;;20.10;64.90;;;;;;4984786;28;45806;-62
2023/05/17 06:07:51;;;;;;;;;;;20.00;64.90;;;;;;4986287;28;47631;-61
2023/05/17 06:10:17;;;;;;;;;;;20.00;64.80;;;;;;4994804;28;45481;-62
2023/05/17 06:12:42;;;;;;;;;;;20.10;64.80;;;;;;4999920;28;45352;-61
2023/05/17 06:15:08;;;;;;;;;;;20.00;64.90;;;;;;5005429;28;45242;-61
2023/05/17 06:17:33;;;;;;;;;;;20.00;64.80;;;;;;4984738;28;47062;-62
2023/05/17 06:19:59;;;;;;;;;;;20.10;64.80;;;;;;5007996;28;45200;-61
2023/05/17 06:22:24;;;;;;;;;;;20.10;64.70;;;;;;4983212;28;45078;-61
2023/05/17 06:24:50;;;;;;;;;;;20.10;64.70;;;;;;5004872;28;49003;-62
2023/05/17 06:27:15;;;;;;;;;;;20.00;64.60;;;;;;4997355;28;47085;-61
2023/05/17 06:29:41;;;;;;;;;;;20.10;64.70;;;;;;5003835;28;45610;-62
2023/05/17 06:32:06;;;;;;;;;;;20.10;64.70;;;;;;4992217;28;45577;-62
2023/05/17 06:34:32;;;;;;;;;;;20.10;64.50;;;;;;5005517;28;45685;-62
2023/05/17 06:36:57;;;;;;;;;;;20.10;64.50;;;;;;4983854;28;46565;-61
2023/05/17 06:39:23;;;;;;;;;;;20.10;64.50;;;;;;4989439;28;45010;-61
2023/05/17 06:41:48;;;;;;;;;;;20.10;64.60;;;;;;4991591;28;45384;-62
2023/05/17 06:44:14;;;;;;;;;;;20.10;64.60;;;;;;5003472;28;45227;-62
2023/05/17 06:46:39;;;;;;;;;;;20.10;64.60;;;;;;4994329;28;47005;-62
2023/05/17 06:49:05;;;;;;;;;;;20.10;64.50;;;;;;5004507;28;45570;-62
2023/05/17 06:51:30;;;;;;;;;;;20.10;64.50;;;;;;4979417;28;45223;-61
2023/05/17 06:53:56;;;;;;;;;;;20.10;64.50;;;;;;5008558;28;45238;-62
2023/05/17 06:56:21;;;;;;;;;;;20.10;64.60;;;;;;4993810;28;46141;-60
2023/05/17 06:58:47;;;;;;;;;;;20.10;64.60;;;;;;4988687;28;45454;-62
2023/05/17 07:01:12;;;;;;;;;;;20.10;64.40;;;;;;4975006;28;45293;-61
2023/05/17 07:03:40;;;;;;;;;;;20.10;64.30;;;;;;4984692;28;60954;-62
2023/05/17 07:06:05;;;;;;;;;;;20.10;64.40;;;;;;4977678;28;46896;-62
2023/05/17 07:08:31;;;;;;;;;;;20.10;64.30;;;;;;4985639;28;45292;-61
2023/05/17 07:10:56;;;;;;;;;;;20.10;64.40;;;;;;4984471;28;45522;-61
2023/05/17 07:13:22;;;;;;;;;;;20.10;64.30;;;;;;4979616;28;45732;-62
2023/05/17 07:15:47;;;;;;;;;;;20.10;64.40;;;;;;4974511;28;46169;-61
2023/05/17 07:18:13;;;;;;;;;;;20.10;64.40;;;;;;4981423;28;45526;-62
2023/05/17 07:20:38;;;;;;;;;;;20.10;64.30;;;;;;4981065;28;45217;-60
2023/05/17 07:23:03;;;;;;;;;;;20.10;64.30;;;;;;4984384;28;45248;-61
2023/05/17 07:25:30;;;;;;;;;;;20.20;64.40;;;;;;4985422;28;46289;-61
2023/05/17 07:27:55;;;;;;;;;;;20.10;64.30;;;;;;4980541;28;44955;-60
2023/05/17 07:30:21;;;;;;;;;;;20.10;64.30;;;;;;4975008;28;45402;-60
2023/05/17 07:32:46;;;;;;;;;;;20.10;64.20;;;;;;4980757;28;45444;-60
2023/05/17 07:35:12;;;;;;;;;;;20.10;64.30;;;;;;4979637;28;45225;-58
2023/05/17 07:37:37;;;;;;;;;;;20.10;64.30;;;;;;4982664;28;45254;-60
2023/05/17 07:40:04;;;;;;;;;;;20.20;64.30;;;;;;4982641;28;45328;-60
2023/05/17 07:42:31;;;;;;;;;;;20.20;64.30;;;;;;4964274;28;45240;-60
2023/05/17 07:44:56;;;;;;;;;;;20.20;64.20;;;;;;4983481;28;47278;-60
2023/05/17 07:47:22;;;;;;;;;;;20.20;64.20;;;;;;4978006;28;45548;-61
2023/05/17 07:49:47;;;;;;;;;;;20.20;64.20;;;;;;4984425;28;45356;-61
2023/05/17 07:52:13;;;;;;;;;;;20.20;64.10;;;;;;4977429;28;45280;-61
2023/05/17 07:54:38;;;;;;;;;;;20.20;64.20;;;;;;4986290;28;45410;-61
2023/05/17 07:57:04;;;;;;;;;;;20.10;64.10;;;;;;4977661;28;45592;-61
2023/05/17 07:59:29;;;;;;;;;;;20.10;64.00;;;;;;4984588;28;45423;-61
2023/05/17 08:01:55;;;;;;;;;;;20.20;64.10;;;;;;4986627;28;45316;-61
2023/05/17 08:04:22;;;;;;;;;;;20.20;64.10;;;;;;4999583;28;46094;-59
2023/05/17 08:06:48;;;;;;;;;;;20.20;64.00;;;;;;4988381;28;44900;-61
2023/05/17 08:09:15;;;;;;;;;;;20.20;64.00;;;;;;5009255;28;45832;-61
2023/05/17 08:11:44;;;;;;;;;;;20.20;63.90;;;;;;5001909;28;45444;-61
2023/05/17 08:14:11;;;;;;;;;;;20.20;64.00;;;;;;4994659;28;46237;-61
2023/05/17 08:16:36;;;;;;;;;;;20.20;64.00;;;;;;4992591;28;45152;-61
2023/05/17 08:19:02;;;;;;;;;;;20.20;63.90;;;;;;5003257;28;45800;-61
2023/05/17 08:21:27;;;;;;;;;;;20.20;63.90;;;;;;4984977;28;45538;-61
2023/05/17 08:23:53;;;;;;;;;;;20.20;63.90;;;;;;5009865;28;45464;-60
2023/05/17 08:26:18;;;;;;;;;;;20.20;63.90;;;;;;5000496;28;45297;-60
2023/05/17 08:28:44;;;;;;;;;;;20.20;63.70;;;;;;5013557;28;45114;-60
2023/05/17 08:31:11;;;;;;;;;;;20.20;63.90;;;;;;5003621;28;45641;-60
2023/05/17 08:33:36;;;;;;;;;;;20.20;63.80;;;;;;5004537;28;45268;-60
2023/05/17 08:36:06;;;;;;;;;;;20.20;63.70;;;;;;4980928;28;45059;-60
2023/05/17 08:38:33;;;;;;;;;;;20.30;63.80;;;;;;4983255;28;44961;-61
2023/05/17 08:40:58;;;;;;;;;;;20.30;63.70;;;;;;5005098;28;45293;-61
2023/05/17 08:43:24;;;;;;;;;;;20.30;63.70;;;;;;5000186;28;45560;-61
2023/05/17 08:45:49;;;;;;;;;;;20.30;63.60;;;;;;5001267;28;45488;-60
2023/05/17 08:48:21;;;;;;;;;;;20.30;63.60;;;;;;4985818;28;45245;-61
2023/05/17 08:50:47;;;;;;;;;;;20.30;63.50;;;;;;5002955;28;45849;-61
2023/05/17 08:53:12;;;;;;;;;;;20.30;61.80;;;;;;4993931;28;45405;-59
2023/05/17 08:55:39;;;;;;;;;;;20.30;60.10;;;;;;4982813;28;45436;-61
2023/05/17 08:58:05;;;;;;;;;;;20.30;58.50;;;;;;5007578;28;45150;-61
2023/05/17 09:00:32;;;;;;;;;;;20.30;56.10;;;;;;4983008;28;45476;-60
2023/05/17 09:03:01;;;;;;;;;;;20.30;54.60;;;;;;5005615;28;45516;-60
2023/05/17 09:05:26;;;;;;;;;;;20.20;53.30;;;;;;4992456;28;45288;-61
2023/05/17 09:07:52;;;;;;;;;;;20.30;56.00;;;;;;5009521;28;45540;-61
2023/05/17 09:10:18;;;;;;;;;;;20.20;54.30;;;;;;4989008;28;45717;-60
2023/05/17 09:12:43;;;;;;;;;;;20.20;56.50;;;;;;4972251;28;47000;-60
2023/05/17 09:15:13;;;;;;;;;;;20.20;54.90;;;;;;4985585;28;45231;-58
2023/05/17 09:17:39;;;;;;;;;;;20.30;53.70;;;;;;4980169;28;45570;-61
2023/05/17 09:20:06;;;;;;;;;;;20.30;51.20;;;;;;5001699;28;45218;-60
2023/05/17 09:22:31;;;;;;;;;;;20.30;51.20;;;;;;5004677;28;45570;-61
2023/05/17 09:24:58;;;;;;;;;;;20.30;56.80;;;;;;4991362;28;45534;-61
2023/05/17 09:27:24;;;;;;;;;;;20.20;57.80;;;;;;5000058;28;45975;-61
2023/05/17 09:29:50;;;;;;;;;;;20.20;51.20;;;;;;5010472;28;45268;-61
2023/05/17 09:32:23;;;;;;;;;;;20.30;51.20;;;;;;4959768;28;46471;-60
2023/05/17 09:34:49;;;;;;;;;;;20.20;51.20;;;;;;5002703;28;45533;-61
2023/05/17 09:37:15;;;;;;;;;;;20.30;53.60;;;;;;4993004;28;45932;-60
2023/05/17 09:39:41;;;;;;;;;;;20.30;53.90;;;;;;4992454;28;45618;-61
2023/05/17 09:42:08;;;;;;;;;;;20.20;53.90;;;;;;4981323;28;46193;-61
2023/05/17 09:44:49;;;;;;;;;;;20.20;52.50;;;;;;4999792;28;45024;-61
2023/05/17 09:47:25;;;;;;;;;;;20.20;51.10;;;;;;4990524;28;45352;-61
2023/05/17 09:49:50;;;;;;;;;;;20.20;52.60;;;;;;5001265;28;45533;-61
2023/05/17 09:52:17;;;;;;;;;;;20.20;52.30;;;;;;4998372;28;46009;-60
2023/05/17 09:54:42;;;;;;;;;;;20.20;51.70;;;;;;5002868;28;45569;-61
2023/05/17 09:57:09;;;;;;;;;;;20.20;51.20;;;;;;4998266;28;44988;-61
2023/05/17 09:59:34;;;;;;;;;;;20.20;52.10;;;;;;5008449;28;45462;-61
2023/05/17 10:02:00;;;;;;;;;;;20.30;54.00;;;;;;4977458;28;46044;-61
2023/05/17 10:04:26;;;;;;;;;;;20.20;54.30;;;;;;4987151;28;46332;-60
2023/05/17 10:06:51;;;;;;;;;;;20.20;56.50;;;;;;4998369;28;44911;-60
2023/05/17 10:09:17;;;;;;;;;;;20.30;59.00;;;;;;4983950;28;45570;-60
2023/05/17 10:11:44;;;;;;;;;;;20.20;57.50;;;;;;4980336;28;45685;-60
2023/05/17 10:14:13;;;;;;;;;;;20.20;54.80;;;;;;4990757;28;44956;-61
2023/05/17 10:16:39;;;;;;;;;;;20.30;56.60;;;;;;4994707;28;45531;-61
2023/05/17 10:19:04;;;;;;;;;;;20.20;53.70;;;;;;5005105;28;45676;-61
2023/05/17 10:21:30;;;;;;;;;;;20.20;52.20;;;;;;4986955;28;45822;-61
2023/05/17 10:23:56;;;;;;;;;;;20.20;51.30;;;;;;4981149;28;46105;-59
2023/05/17 10:26:21;;;;;;;;;;;20.20;51.40;;;;;;4981578;28;45274;-61
2023/05/17 10:28:49;;;;;;;;;;;20.20;51.40;;;;;;4984914;28;45401;-59
2023/05/17 10:31:14;;;;;;;;;;;20.20;51.40;;;;;;4997501;28;46180;-61
2023/05/17 10:33:41;;;;;;;;;;;20.20;51.40;;;;;;4984003;28;44979;-61
2023/05/17 10:36:07;;;;;;;;;;;20.20;51.40;;;;;;4970592;28;45522;-60
2023/05/17 10:38:32;;;;;;;;;;;20.20;51.40;;;;;;4985439;28;45577;-60
2023/05/17 10:40:57;;;;;;;;;;;20.20;51.40;;;;;;4965284;28;46167;-61
2023/05/17 10:43:23;;;;;;;;;;;20.20;51.40;;;;;;4986492;28;45667;-61
2023/05/17 10:45:49;;;;;;;;;;;20.20;51.30;;;;;;4980465;28;45546;-61
2023/05/17 10:48:14;;;;;;;;;;;20.20;51.30;;;;;;4987723;28;44760;-61
2023/05/17 10:50:41;;;;;;;;;;;20.20;51.30;;;;;;4999602;28;46243;-60
2023/05/17 10:53:10;;;;;;;;;;;20.30;51.20;;;;;;4988502;28;45322;-61
2023/05/17 10:55:39;;;;;;;;;;;20.20;51.30;;;;;;4982532;28;45442;-61
2023/05/17 10:58:17;;;;;;;;;;;20.20;51.20;;;;;;4999175;28;45320;-60
2023/05/17 11:00:43;;;;;;;;;;;20.20;51.30;;;;;;4980117;28;45970;-60
2023/05/17 11:03:12;;;;;;;;;;;20.20;51.10;;;;;;4998356;28;45493;-60
2023/05/17 11:05:40;;;;;;;;;;;20.30;51.20;;;;;;4977244;28;45960;-60
2023/05/17 11:08:13;;;;;;;;;;;20.30;51.20;;;;;;4985709;28;45299;-59
2023/05/17 11:10:38;;;;;;;;;;;20.30;51.10;;;;;;4997824;28;45507;-60
2023/05/17 11:13:09;;;;;;;;;;;20.30;51.10;;;;;;5000766;28;45493;-59
2023/05/17 11:15:34;;;;;;;;;;;20.30;51.20;;;;;;4956331;28;45379;-59
2023/05/17 11:18:00;;;;;;;;;;;20.30;51.10;;;;;;4982716;28;45225;-60
2023/05/17 11:20:26;;;;;;;;;;;20.30;51.00;;;;;;4965617;28;47682;-59
2023/05/17 11:22:58;;;;;;;;;;;20.30;50.90;;;;;;4986388;28;45667;-60
2023/05/17 11:25:31;;;;;;;;;;;20.30;51.00;;;;;;4999250;28;46777;-60
2023/05/17 11:27:57;;;;;;;;;;;20.40;51.10;;;;;;4983868;28;46393;-60
2023/05/17 11:30:23;;;;;;;;;;;20.40;50.90;;;;;;5001754;28;46069;-60
2023/05/17 11:32:49;;;;;;;;;;;20.40;50.80;;;;;;5001792;28;45493;-58
2023/05/17 11:35:15;;;;;;;;;;;20.40;51.00;;;;;;4985684;28;45740;-60
2023/05/17 11:37:42;;;;;;;;;;;20.40;50.90;;;;;;4987490;28;45399;-60
2023/05/17 11:40:09;;;;;;;;;;;20.40;51.00;;;;;;5003537;28;46316;-60
2023/05/17 11:42:36;;;;;;;;;;;20.40;50.90;;;;;;4988379;28;45402;-61
2023/05/17 11:45:01;;;;;;;;;;;20.40;50.70;;;;;;4983735;28;45823;-62
2023/05/17 11:47:27;;;;;;;;;;;20.50;51.00;;;;;;4982277;28;45799;-62
2023/05/17 11:49:53;;;;;;;;;;;20.40;51.00;;;;;;5008697;28;46019;-62
2023/05/17 11:52:18;;;;;;;;;;;20.40;51.00;;;;;;5004478;28;45242;-61
2023/05/17 11:54:44;;;;;;;;;;;20.50;51.00;;;;;;5009258;28;45337;-60
2023/05/17 11:57:10;;;;;;;;;;;20.50;51.00;;;;;;5001768;28;44944;-61
2023/05/17 11:59:37;;;;;;;;;;;20.50;51.10;;;;;;4982941;28;46127;-61
2023/05/17 12:02:02;;;;;;;;;;;20.50;51.00;;;;;;4994259;28;46054;-61
2023/05/17 12:04:28;;;;;;;;;;;20.50;51.00;;;;;;5004363;28;45580;-61
2023/05/17 12:06:54;;;;;;;;;;;20.50;51.00;;;;;;5004563;28;46025;-61
2023/05/17 12:09:20;;;;;;;;;;;20.50;51.00;;;;;;5010166;28;45875;-61
2023/05/17 12:11:46;;;;;;;;;;;20.50;51.10;;;;;;5001921;28;45302;-61
2023/05/17 12:14:19;;;;;;;;;;;20.50;51.00;;;;;;4994639;28;45160;-59
2023/05/17 12:16:46;;;;;;;;;;;20.50;51.10;;;;;;4991704;28;45325;-61
2023/05/17 12:19:18;;;;;;;;;;;20.60;51.10;;;;;;5005716;28;45445;-62
2023/05/17 12:21:44;;;;;;;;;;;20.60;51.10;;;;;;4996610;28;45213;-61
2023/05/17 12:24:09;;;;;;;;;;;20.60;51.10;;;;;;5008278;28;45132;-60
2023/05/17 12:26:35;;;;;;;;;;;20.60;51.00;;;;;;4983125;28;45445;-61
2023/05/17 12:29:00;;;;;;;;;;;20.60;51.10;;;;;;4986668;28;45999;-62
2023/05/17 12:31:49;;;;;;;;;;;20.60;51.10;;;;;;4990138;28;45988;-62
2023/05/17 12:34:15;;;;;;;;;;;20.60;50.90;;;;;;4998898;28;46328;-62
2023/05/17 12:36:41;;;;;;;;;;;20.60;50.90;;;;;;5003865;28;45497;-62
2023/05/17 12:39:08;;;;;;;;;;;20.60;51.00;;;;;;5006137;28;46195;-60
2023/05/17 12:41:34;;;;;;;;;;;20.60;51.10;;;;;;4997684;28;45486;-62
2023/05/17 12:44:00;;;;;;;;;;;20.60;51.00;;;;;;5004162;28;45475;-61
2023/05/17 12:46:25;;;;;;;;;;;20.60;51.00;;;;;;4996567;28;44814;-60
2023/05/17 12:49:20;;;;;;;;;;;20.70;51.00;;;;;;4982567;28;45133;-63
2023/05/17 12:51:46;;;;;;;;;;;20.70;51.00;;;;;;4980186;28;45295;-63
2023/05/17 12:54:12;;;;;;;;;;;20.70;51.00;;;;;;5008726;28;45170;-60
2023/05/17 12:56:40;;;;;;;;;;;20.70;51.00;;;;;;5003276;28;45499;-63
2023/05/17 12:59:19;;;;;;;;;;;20.70;51.00;;;;;;5010225;28;46070;-63
2023/05/17 13:01:45;;;;;;;;;;;20.70;51.10;;;;;;4996760;28;45304;-63
2023/05/17 13:04:11;;;;;;;;;;;20.70;50.90;;;;;;4998137;28;45182;-62
2023/05/17 13:06:43;;;;;;;;;;;20.70;51.00;;;;;;4999510;28;45598;-63
2023/05/17 13:09:09;;;;;;;;;;;20.70;51.00;;;;;;5004843;28;45925;-63
2023/05/17 13:11:39;;;;;;;;;;;20.80;51.10;;;;;;5000107;28;45582;-62
2023/05/17 13:14:05;;;;;;;;;;;20.70;51.00;;;;;;5005216;28;44923;-62
2023/05/17 13:16:30;;;;;;;;;;;20.80;51.00;;;;;;4999154;28;45443;-62
2023/05/17 13:18:56;;;;;;;;;;;20.80;51.10;;;;;;4998912;28;46108;-60
2023/05/17 13:21:21;;;;;;;;;;;20.80;51.10;;;;;;5000293;28;45151;-62
2023/05/17 13:23:47;;;;;;;;;;;20.80;51.00;;;;;;5005654;28;45739;-61
2023/05/17 13:26:13;;;;;;;;;;;20.80;51.00;;;;;;5002864;28;44784;-60
2023/05/17 13:28:39;;;;;;;;;;;20.80;51.60;;;;;;5008692;28;47096;-61
2023/05/17 13:31:04;;;;;;;;;;;20.80;50.90;;;;;;4999741;28;45447;-61
2023/05/17 13:33:30;;;;;;;;;;;20.80;50.90;;;;;;5005953;28;45253;-61
2023/05/17 13:35:55;;;;;;;;;;;20.90;51.60;;;;;;4998942;28;45489;-62
2023/05/17 13:38:21;;;;;;;;;;;20.90;50.90;;;;;;5007141;28;45372;-62
2023/05/17 13:40:46;;;;;;;;;;;20.90;50.80;;;;;;4986197;28;45090;-61
2023/05/17 13:43:12;;;;;;;;;;;20.90;50.80;;;;;;5007253;28;45437;-60
2023/05/17 13:45:37;;;;;;;;;;;20.90;50.90;;;;;;4992216;28;45566;-61
2023/05/17 13:48:03;;;;;;;;;;;20.90;50.80;;;;;;4999975;28;45354;-61
2023/05/17 13:50:28;;;;;;;;;;;21.00;50.80;;;;;;5001745;28;45254;-61
2023/05/17 13:52:54;;;;;;;;;;;21.00;50.80;;;;;;5000831;28;45663;-62
2023/05/17 13:55:19;;;;;;;;;;;21.00;50.90;;;;;;5000569;28;45462;-62
2023/05/17 13:57:45;;;;;;;;;;;21.00;50.90;;;;;;4988386;28;46063;-61
2023/05/17 14:00:10;;;;;;;;;;;21.00;50.80;;;;;;5003915;28;45217;-62
2023/05/17 14:02:36;;;;;;;;;;;21.00;50.80;;;;;;4999531;28;45719;-62
2023/05/17 14:05:03;;;;;;;;;;;21.00;50.90;;;;;;5004333;28;44939;-61
2023/05/17 14:07:29;;;;;;;;;;;21.00;50.90;;;;;;4996000;28;45294;-61
2023/05/17 14:09:54;;;;;;;;;;;21.00;50.90;;;;;;5004150;28;44937;-62
2023/05/17 14:12:20;;;;;;;;;;;21.00;50.90;;;;;;5000647;28;45351;-61
2023/05/17 14:14:45;;;;;;;;;;;21.00;50.90;;;;;;4991396;28;45377;-62
2023/05/17 14:17:11;;;;;;;;;;;21.00;51.00;;;;;;4995710;28;46023;-62
2023/05/17 14:19:36;;;;;;;;;;;21.00;50.90;;;;;;5007507;28;45592;-62
2023/05/17 14:22:02;;;;;;;;;;;21.00;50.90;;;;;;5003580;28;46155;-61
2023/05/17 14:24:27;;;;;;;;;;;21.00;51.20;;;;;;4999590;28;46179;-60
2023/05/17 14:26:53;;;;;;;;;;;21.00;51.00;;;;;;5001077;28;47084;-62
2023/05/17 14:29:18;;;;;;;;;;;21.00;51.00;;;;;;5002930;28;45812;-62
2023/05/17 14:31:44;;;;;;;;;;;21.10;50.90;;;;;;4998923;28;45656;-61
2023/05/17 14:34:10;;;;;;;;;;;21.10;50.90;;;;;;5002092;28;45582;-60
2023/05/17 14:36:37;;;;;;;;;;;21.10;50.90;;;;;;4995498;28;45823;-60
2023/05/17 14:39:02;;;;;;;;;;;21.00;50.80;;;;;;4998401;28;45661;-62
2023/05/17 14:41:28;;;;;;;;;;;21.10;50.90;;;;;;4982859;28;45571;-62
2023/05/17 14:43:54;;;;;;;;;;;21.00;50.90;;;;;;4974755;28;45218;-62
2023/05/17 14:46:20;;;;;;;;;;;21.10;50.90;;;;;;4998725;28;45371;-62
2023/05/17 14:48:45;;;;;;;;;;;21.10;50.90;;;;;;5000852;28;45317;-61
2023/05/17 14:51:11;;;;;;;;;;;21.10;50.80;;;;;;4995724;28;45085;-62
2023/05/17 14:53:36;;;;;;;;;;;21.10;50.80;;;;;;5007785;28;45786;-62
2023/05/17 14:56:02;;;;;;;;;;;21.10;50.80;;;;;;4998884;28;46037;-62
2023/05/17 14:58:27;;;;;;;;;;;21.10;50.80;;;;;;5006504;28;44882;-62
2023/05/17 15:00:56;;;;;;;;;;;21.10;50.80;;;;;;4996092;28;45516;-62
2023/05/17 15:03:22;;;;;;;;;;;21.10;50.80;;;;;;5003475;28;45278;-61
2023/05/17 15:05:54;;;;;;;;;;;21.10;50.80;;;;;;5000525;28;45948;-61
2023/05/17 15:08:20;;;;;;;;;;;21.20;50.80;;;;;;5004357;28;45878;-62
2023/05/17 15:10:48;;;;;;;;;;;21.20;50.80;;;;;;4994839;28;45656;-62
2023/05/17 15:13:13;;;;;;;;;;;21.20;50.80;;;;;;5001724;28;45581;-61
2023/05/17 15:15:39;;;;;;;;;;;21.20;50.80;;;;;;5000198;28;46011;-62
2023/05/17 15:18:05;;;;;;;;;;;21.20;50.70;;;;;;4980151;28;45685;-61
2023/05/17 15:20:30;;;;;;;;;;;21.20;50.70;;;;;;4998126;28;45391;-60
2023/05/17 15:22:56;;;;;;;;;;;21.20;50.70;;;;;;4964189;28;46777;-62
2023/05/17 15:25:21;;;;;;;;;;;21.20;50.80;;;;;;4998888;28;45840;-62
2023/05/17 15:27:48;;;;;;;;;;;21.20;50.70;;;;;;4996662;28;45511;-62
2023/05/17 15:30:13;;;;;;;;;;;21.20;50.90;;;;;;4997505;28;45512;-62
2023/05/17 15:32:39;;;;;;;;;;;21.20;50.70;;;;;;5002966;28;45501;-63
2023/05/17 15:35:05;;;;;;;;;;;21.20;50.70;;;;;;5000190;28;47294;-61
2023/05/17 15:37:31;;;;;;;;;;;21.20;50.70;;;;;;4984116;28;45471;-62
2023/05/17 15:39:59;;;;;;;;;;;21.20;50.80;;;;;;4986351;28;45528;-60
2023/05/17 15:42:25;;;;;;;;;;;21.20;50.80;;;;;;4980386;28;45326;-62
2023/05/17 15:44:50;;;;;;;;;;;21.20;50.80;;;;;;5007326;28;48044;-62
2023/05/17 15:47:16;;;;;;;;;;;21.20;50.80;;;;;;4992245;28;45396;-62
2023/05/17 15:49:41;;;;;;;;;;;21.20;50.80;;;;;;5007498;28;45436;-62
2023/05/17 15:52:07;;;;;;;;;;;21.10;50.80;;;;;;4983631;28;45090;-58
2023/05/17 15:54:33;;;;;;;;;;;21.10;50.70;;;;;;4999633;28;46116;-60
2023/05/17 15:56:58;;;;;;;;;;;21.10;50.70;;;;;;4982196;28;45180;-60
2023/05/17 15:59:24;;;;;;;;;;;21.10;51.20;;;;;;5002265;28;45505;-62
2023/05/17 16:01:49;;;;;;;;;;;21.20;50.80;;;;;;4977181;28;45097;-62
2023/05/17 16:04:15;;;;;;;;;;;21.20;50.70;;;;;;5002399;28;46061;-62
2023/05/17 16:06:41;;;;;;;;;;;21.10;50.60;;;;;;4996636;28;45181;-61
2023/05/17 16:09:06;;;;;;;;;;;21.20;50.70;;;;;;4999527;28;45050;-62
2023/05/17 16:11:32;;;;;;;;;;;21.10;50.60;;;;;;4998973;28;45559;-62
2023/05/17 16:13:57;;;;;;;;;;;21.10;50.70;;;;;;4999641;28;46072;-61
2023/05/17 16:16:23;;;;;;;;;;;21.10;50.70;;;;;;4989234;28;46269;-62
2023/05/17 16:18:48;;;;;;;;;;;21.10;50.60;;;;;;4980357;28;45653;-62
2023/05/17 16:21:14;;;;;;;;;;;21.10;50.60;;;;;;4973802;28;45822;-62
2023/05/17 16:23:39;;;;;;;;;;;21.10;50.60;;;;;;4994824;28;46018;-61
2023/05/17 16:26:06;;;;;;;;;;;21.10;50.60;;;;;;4992960;28;45358;-61
2023/05/17 16:28:33;;;;;;;;;;;21.10;50.60;;;;;;5001756;28;45307;-60
2023/05/17 16:30:58;;;;;;;;;;;21.10;50.70;;;;;;4995722;28;45389;-60
2023/05/17 16:33:24;;;;;;;;;;;21.10;50.70;;;;;;4974641;28;45362;-62
2023/05/17 16:35:50;;;;;;;;;;;21.10;50.70;;;;;;4983146;28;45523;-62
2023/05/17 16:38:15;;;;;;;;;;;21.10;50.70;;;;;;5000302;28;46538;-62
2023/05/17 16:40:41;;;;;;;;;;;21.10;50.60;;;;;;4981220;28;45444;-62
2023/05/17 16:43:06;;;;;;;;;;;21.10;50.60;;;;;;5002251;28;45316;-62
2023/05/17 16:45:32;;;;;;;;;;;21.10;50.70;;;;;;4979890;28;45368;-62
2023/05/17 16:47:57;;;;;;;;;;;21.10;50.60;;;;;;4995316;28;45484;-61
2023/05/17 16:50:23;;;;;;;;;;;21.10;50.60;;;;;;4999290;28;45286;-62
2023/05/17 16:52:49;;;;;;;;;;;21.10;50.60;;;;;;5000648;28;46225;-62
2023/05/17 16:55:14;;;;;;;;;;;21.10;50.60;;;;;;4998388;28;45326;-62
2023/05/17 16:57:40;;;;;;;;;;;21.10;50.60;;;;;;5003336;28;44704;-59
2023/05/17 17:00:07;;;;;;;;;;;21.10;50.60;;;;;;4998984;28;44843;-58
2023/05/17 17:02:33;;;;;;;;;;;21.10;50.60;;;;;;4992811;28;45954;-60
2023/05/17 17:04:58;;;;;;;;;;;21.10;50.60;;;;;;4984219;28;45259;-60
2023/05/17 17:07:23;;;;;;;;;;;21.10;50.70;;;;;;4997719;28;45338;-60
2023/05/17 17:09:49;;;;;;;;;;;21.10;50.60;;;;;;4999854;28;46211;-59